| Place | Name | Time | Raw score | Score |
|---|---|---|---|---|
| 1 | -DarkLlama- | 1:36.28 | 1,000 | 324 |
| 2 | Siyzerix | 1:36.44 | 900 | 292 |
| 3 | XiQu3sT | 1:37.00 | 859 | 278 |
| 4 | the local somebody | 1:42.51 | 827 | 268 |
| 5 | ahtnos | 1:49.21 | 800 | 259 |
| 6 | OMANEYE | 2:45.53 | 777 | 252 |
| 7 | [deleted] | 3:02.41 | 756 | 245 |
| 8 | Zany | 3:06.72 | 736 | 238 |
| 9 | Sidewinder Fang | 3:07.12 | 718 | 233 |
| 10 | slug ʕ●.●ʔ | 3:11.68 | 700 | 227 |
| 11 | FluffyTheZombii | 3:11.83 | 684 | 222 |
| 12 | Freud | 3:11.98 | 669 | 217 |
| 13 | Californ1a | 3:12.19 | 654 | 212 |
| 14 | Bridge | 3:12.25 | 640 | 207 |
| 15 | PathToV1ctory | 3:12.29 | 626 | 203 |
| 16 | Void Concept | 3:12.39 | 613 | 199 |
| 17 | Aiko | 3:12.41 | 600 | 194 |
| 18 | KnightBane | 3:12.54 | 588 | 191 |
| 19 | Kenaz | 3:12.56 | 576 | 187 |
| 20 | PinesOfChaos | 3:12.72 | 565 | 183 |
| 21 | Other XIX | 3:12.76 | 553 | 179 |
| 22 | Sensokaku | 3:12.85 | 542 | 176 |
| 23 | Ebeta2 | 3:12.94 | 531 | 172 |
| 24 | i0nTempest | 3:13.04 | 521 | 169 |
| 25 | Predatory_Balloon | 3:13.14 | 511 | 166 |
| 26 | Dimitri | 3:13.24 | 500 | 162 |
| 27 | Azure | 3:13.34 | 491 | 159 |
| 28 | Azure Zakura | 3:13.36 | 481 | 156 |
| 29 | Kinix | 3:13.48 | 471 | 153 |
| 30 | Waonder | 3:13.51 | 462 | 150 |
| 31 | Woody | 3:13.57 | 453 | 147 |
| 32 | Birb | 3:13.68 | 444 | 144 |
| 33 | jason | 3:13.74 | 435 | 141 |
| 33 | TP-N.co PC-118 B-10001110101 | 3:13.74 | 435 | 141 |
| 35 | Thaumic | 3:13.79 | 417 | 135 |
| 36 | the Bear of the Web | 3:13.82 | 409 | 133 |
| 36 | LeFluffySquirrel | 3:13.82 | 409 | 133 |
| 38 | Dreigo | 3:13.83 | 392 | 127 |
| 39 | Plasmawario | 3:13.95 | 384 | 124 |
| 40 | matheus paiva | 3:13.96 | 376 | 122 |
| 41 | codename_rb | 3:14.05 | 368 | 119 |
| 42 | Nerf | 3:14.09 | 360 | 117 |
| 43 | Pixel_ | 3:14.19 | 352 | 114 |
| 44 | ルイーズ | 3:14.21 | 345 | 112 |
| 45 | kriz_chan | 3:14.23 | 337 | 109 |
| 46 | DefenderOfHyrule | 3:14.28 | 330 | 107 |
| 47 | Гвоздь | 3:14.29 | 322 | 104 |
| 48 | Meda | 3:14.31 | 315 | 102 |
| 49 | levinv270 | 3:14.33 | 308 | 100 |
| 50 | Toats | 3:14.37 | 300 | 97 |
| 51 | Mafn | 3:14.41 | 293 | 95 |
| 51 | 1MBStudios | 3:14.41 | 293 | 95 |
| 53 | Eagl3 | 3:14.44 | 279 | 90 |
| 54 | khrisround2 | 3:14.50 | 272 | 88 |
| 55 | Curious Fish | 3:14.52 | 266 | 86 |
| 56 | TheEvilMidnightBomber | 3:14.53 | 259 | 84 |
| 57 | Samn | 3:14.55 | 252 | 82 |
| 58 | NicholasKB19 | 3:14.59 | 246 | 80 |
| 59 | CrazyMaurice120 | 3:14.61 | 239 | 77 |
| 60 | Pelerin | 3:14.68 | 232 | 75 |
| 60 | MyurrDurr | 3:14.68 | 232 | 75 |
| 62 | lefor0416 | 3:14.72 | 219 | 71 |
| 63 | CrazyGamer742 | 3:14.85 | 213 | 69 |
| 64 | IllKIllU | 3:14.87 | 207 | 67 |
| 65 | Super_Shadow57 | 3:15.05 | 200 | 65 |
| 65 | Eternalblast | 3:15.05 | 200 | 65 |
| 67 | Ravicale | 3:15.11 | 188 | 61 |
| 68 | fire219 | 3:15.14 | 182 | 59 |
| 69 | G5TNo2486 | 3:15.15 | 176 | 57 |
| 70 | MidKnightRanger | 3:15.16 | 170 | 55 |
| 71 | Cathy | 3:15.19 | 164 | 53 |
| 72 | skuzzzy | 3:15.23 | 158 | 51 |
| 73 | pcl219 | 3:15.25 | 152 | 49 |
| 74 | JacquetheRipper | 3:15.27 | 146 | 47 |
| 75 | UnFefeSauvage | 3:15.28 | 140 | 45 |
| 76 | Ruslan145 | 3:15.30 | 134 | 43 |
| 77 | Stracker | 3:15.33 | 129 | 42 |
| 78 | baakstaff | 3:15.48 | 123 | 40 |
| 79 | Ame | 3:15.52 | 117 | 38 |
| 80 | 4onen | 3:15.58 | 112 | 36 |
| 81 | Disatroja | 3:15.64 | 106 | 34 |
| 82 | Lawrence | 3:15.67 | 100 | 32 |
| 83 | The Unusual Suspect | 3:15.74 | 95 | 31 |
| 84 | gusforester | 3:15.76 | 89 | 29 |
| 85 | NePurple | 3:15.78 | 84 | 27 |
| 86 | Mei Rummy-chan | 3:15.81 | 79 | 26 |
| 87 | Sev | 3:15.82 | 73 | 24 |
| 88 | Kramatus | 3:15.85 | 68 | 22 |
| 89 | But we're both girls! | 3:15.86 | 62 | 20 |
| 89 | concil | 3:15.86 | 62 | 20 |
| 91 | Sooth | 3:15.90 | 52 | 17 |
| 92 | Moonie | 3:15.96 | 47 | 15 |
| 93 | RaiderZulu | 3:15.98 | 41 | 13 |
| 94 | Saberik | 3:16.22 | 36 | 12 |
| 95 | ADamnDerpName | 3:16.26 | 31 | 10 |
| 96 | Mr. Doggy | 3:16.27 | 26 | 8 |
| 97 | Spaceburger | 3:16.32 | 21 | 7 |
| 98 | iHaveAwfulIdeas | 3:16.50 | 16 | 5 |
| 99 | MasterJedi2014 | 3:16.58 | 11 | 4 |
| 100 | TheMelonGod | 3:16.60 | 6 | 2 |
| 101 | Hirochi | 3:16.61 | 0 | 0 |
| 102 | Yecent | 3:16.66 | 0 | 0 |
| 103 | 16aroth6 | 3:16.72 | 0 | 0 |
| 104 | Xandrak | 3:16.76 | 0 | 0 |
| 105 | Taro | 3:16.78 | 0 | 0 |
| 106 | Jay2a | 3:16.80 | 0 | 0 |
| 107 | blur | 3:16.82 | 0 | 0 |
| 108 | Queritz | 3:16.83 | 0 | 0 |
| 109 | Cptnbean | 3:16.84 | 0 | 0 |
| 110 | Sniggles | 3:17.00 | 0 | 0 |
| 110 | Duhphlates | 3:17.00 | 0 | 0 |
| 112 | Cody | 3:17.06 | 0 | 0 |
| 113 | Dorphan | 3:17.08 | 0 | 0 |
| 114 | RUDrew | 3:17.19 | 0 | 0 |
| 115 | Saint Pierre | 3:17.20 | 0 | 0 |
| 116 | Neoblastz | 3:17.32 | 0 | 0 |
| 117 | Horstron | 3:17.34 | 0 | 0 |
| 118 | ForlornStag | 3:17.35 | 0 | 0 |
| 119 | Chronos | 3:17.39 | 0 | 0 |
| 120 | The Dank Magician | 3:17.42 | 0 | 0 |
| 121 | Darnoc703 | 3:17.43 | 0 | 0 |
| 122 | Angry Uber Driver | 3:17.47 | 0 | 0 |
| 123 | Myogi Night | 3:17.49 | 0 | 0 |
| 124 | Rombommind | 3:17.52 | 0 | 0 |
| 125 | EmeraldSlash | 3:17.61 | 0 | 0 |
| 126 | IA | 3:17.82 | 0 | 0 |
| 127 | ash | 3:17.86 | 0 | 0 |
| 128 | sim<>n[a] | 3:17.87 | 0 | 0 |
| 129 | Benji | 3:17.88 | 0 | 0 |
| 129 | XLgeneral | 3:17.88 | 0 | 0 |
| 131 | Vyneci | 3:17.95 | 0 | 0 |
| 132 | Verity | 3:17.97 | 0 | 0 |
| 133 | VinLAURiA | 3:18.08 | 0 | 0 |
| 134 | Idle Asides | 3:18.20 | 0 | 0 |
| 135 | Twaddle | 3:18.25 | 0 | 0 |
| 136 | Indy1984 | 3:18.31 | 0 | 0 |
| 137 | Muggestutz | 3:18.36 | 0 | 0 |
| 138 | Paparazzi | 3:18.41 | 0 | 0 |
| 139 | dzhonrus | 3:18.50 | 0 | 0 |
| 140 | Blahaj Blast | 3:18.55 | 0 | 0 |
| 141 | ReallyDumbFox | 3:18.56 | 0 | 0 |
| 142 | Wourder | 3:18.58 | 0 | 0 |
| 143 | rbrules | 3:18.62 | 0 | 0 |
| 144 | Apocalyptic Bunny | 3:18.72 | 0 | 0 |
| 145 | Tribow | 3:18.79 | 0 | 0 |
| 146 | Pinn27 | 3:19.18 | 0 | 0 |
| 147 | Kibōchen | 3:19.22 | 0 | 0 |
| 148 | M E L L O W | 3:19.24 | 0 | 0 |
| 149 | Pompous Whale | 3:19.29 | 0 | 0 |
| 150 | One Ghosty Boi | 3:19.30 | 0 | 0 |
| 150 | delicious sandwich | 3:19.30 | 0 | 0 |
| 152 | Kosvid | 3:19.31 | 0 | 0 |
| 153 | posture check | 3:19.40 | 0 | 0 |
| 154 | Zarifi | 3:19.55 | 0 | 0 |
| 155 | Seekr | 3:19.58 | 0 | 0 |
| 156 | Weird Pumpkin | 3:19.65 | 0 | 0 |
| 157 | Retyqui | 3:19.70 | 0 | 0 |
| 158 | Crubo | 3:19.76 | 0 | 0 |
| 159 | MuRoRu | 3:19.86 | 0 | 0 |
| 160 | SIX | 3:19.90 | 0 | 0 |
| 161 | [RC] | 3:19.95 | 0 | 0 |
| 162 | WiteNite | 3:20.01 | 0 | 0 |
| 162 | Mazerswift | 3:20.01 | 0 | 0 |
| 164 | Sartha | 3:20.14 | 0 | 0 |
| 165 | Sayukki | 3:20.20 | 0 | 0 |
| 166 | Winter's Crescendo | 3:20.28 | 0 | 0 |
| 167 | A very silly man indeed | 3:20.37 | 0 | 0 |
| 168 | LobaDK | 3:20.55 | 0 | 0 |
| 169 | Arika Springfield | 3:20.59 | 0 | 0 |
| 170 | ataraxia.wav | 3:20.63 | 0 | 0 |
| 171 | jmdajm7 | 3:20.66 | 0 | 0 |
| 172 | snugglebottom | 3:20.67 | 0 | 0 |
| 173 | sendthefish | 3:20.74 | 0 | 0 |
| 174 | Changeling | 3:20.79 | 0 | 0 |
| 175 | Agent-Cryspy | 3:20.85 | 0 | 0 |
| 176 | kiwi | 3:20.86 | 0 | 0 |
| 177 | Warriot | 3:20.98 | 0 | 0 |
| 178 | Amniotus | 3:21.13 | 0 | 0 |
| 179 | U.R.S.S.O | 3:21.36 | 0 | 0 |
| 180 | Jards | 3:21.41 | 0 | 0 |
| 181 | Grav | 3:21.64 | 0 | 0 |
| 182 | Potted Mushroom | 3:21.67 | 0 | 0 |
| 183 | Fleabag | 3:21.74 | 0 | 0 |
| 184 | Moodeng | 3:21.98 | 0 | 0 |
| 185 | Spearmint | 3:22.00 | 0 | 0 |
| 186 | Mr. Bird | 3:22.27 | 0 | 0 |
| 187 | Crado | 3:22.40 | 0 | 0 |
| 188 | Luminous | 3:22.50 | 0 | 0 |
| 189 | Awesomedan | 3:22.63 | 0 | 0 |
| 190 | Razgriez | 3:23.21 | 0 | 0 |
| 191 | 〔Es〕 | 3:23.25 | 0 | 0 |
| 192 | OnyonSwomp | 3:23.34 | 0 | 0 |
| 193 | Beskar | 3:23.51 | 0 | 0 |
| 194 | Defiance_LLK | 3:23.70 | 0 | 0 |
| 195 | Shadiest | 3:23.80 | 0 | 0 |
| 196 | Luxora | 3:24.02 | 0 | 0 |
| 197 | Simon Evo | 3:24.10 | 0 | 0 |
| 198 | youtube vembress | 3:24.24 | 0 | 0 |
| 199 | CuddleStrike | 3:24.48 | 0 | 0 |
| 200 | Moumoute | 3:24.52 | 0 | 0 |
| 201 | itsukarine | 3:24.67 | 0 | 0 |
| 202 | Sunchipp Games | 3:24.74 | 0 | 0 |
| 203 | Dorey348 | 3:24.86 | 0 | 0 |
| 204 | raijke | 3:24.90 | 0 | 0 |
| 205 | gslayer14 | 3:24.91 | 0 | 0 |
| 206 | Uholyn | 3:24.98 | 0 | 0 |
| 207 | NoBody | 3:25.06 | 0 | 0 |
| 208 | Zach the k1ller | 3:25.14 | 0 | 0 |
| 208 | JohnCorby | 3:25.14 | 0 | 0 |
| 210 | Da Doom Man | 3:25.29 | 0 | 0 |
| 211 | Blexyde | 3:25.34 | 0 | 0 |
| 212 | Jarek718 | 3:25.55 | 0 | 0 |
| 213 | Alrunes | 3:25.66 | 0 | 0 |
| 214 | Filounderstover | 3:25.94 | 0 | 0 |
| 215 | Governor Tekagi | 3:26.09 | 0 | 0 |
| 216 | Roboraser | 3:26.13 | 0 | 0 |
| 217 | Krull | 3:26.19 | 0 | 0 |
| 218 | MarsDevastater | 3:26.22 | 0 | 0 |
| 219 | Orion | 3:26.30 | 0 | 0 |
| 219 | Overlord | 3:26.30 | 0 | 0 |
| 221 | Johncarllos | 3:26.31 | 0 | 0 |
| 222 | Yokai | 3:26.49 | 0 | 0 |
| 223 | [deleted] | 3:26.50 | 0 | 0 |
| 224 | Inzarin | 3:26.53 | 0 | 0 |
| 225 | Mired | 3:26.58 | 0 | 0 |
| 226 | Raiden925 | 3:26.62 | 0 | 0 |
| 227 | S.Kappelmann | 3:26.71 | 0 | 0 |
| 228 | Wildclaw | 3:26.91 | 0 | 0 |
| 229 | Catgirl Chilis | 3:27.00 | 0 | 0 |
| 230 | Hornsking | 3:27.05 | 0 | 0 |
| 231 | Jezo | 3:27.10 | 0 | 0 |
| 232 | Iris | 3:27.13 | 0 | 0 |
| 233 | Tesselode | 3:27.14 | 0 | 0 |
| 234 | FramedMic | 3:27.18 | 0 | 0 |
| 235 | HJQLF | 3:27.33 | 0 | 0 |
| 236 | Hayden | 3:27.40 | 0 | 0 |
| 237 | Carnifex | 3:27.53 | 0 | 0 |
| 238 | Neko | 3:27.58 | 0 | 0 |
| 239 | speed | 3:27.67 | 0 | 0 |
| 240 | BigThirsty | 3:27.86 | 0 | 0 |
| 241 | [GG]GiggelingGustav | 3:27.87 | 0 | 0 |
| 241 | calne | 3:27.87 | 0 | 0 |
| 243 | Mr.Derp | 3:27.92 | 0 | 0 |
| 244 | Nekrogen57 | 3:27.97 | 0 | 0 |
| 245 | pigpenguin | 3:28.14 | 0 | 0 |
| 246 | <color=#00c9ff>Sans | 3:28.32 | 0 | 0 |
| 247 | Tem | 3:28.40 | 0 | 0 |
| 248 | Ultor | 3:28.42 | 0 | 0 |
| 249 | JaimmyShine | 3:28.43 | 0 | 0 |
| 250 | Lud | Forest | 3:28.51 | 0 | 0 |
| 251 | sparx041 | 3:28.71 | 0 | 0 |
| 252 | FyreWall | 3:28.89 | 0 | 0 |
| 253 | dannyburke03 | 3:28.94 | 0 | 0 |
| 254 | BlacKat | 3:28.96 | 0 | 0 |
| 255 | Agent Starlight | 3:29.20 | 0 | 0 |
| 256 | Bohemius | 3:29.28 | 0 | 0 |
| 257 | BesRezen | 3:29.33 | 0 | 0 |
| 258 | CS | 3:29.45 | 0 | 0 |
| 259 | supersushicat1 | 3:29.53 | 0 | 0 |
| 260 | Enzyme Machine | 3:29.68 | 0 | 0 |
| 261 | TS_Mind_Swept | 3:29.97 | 0 | 0 |
| 262 | Terrapin | 3:30.08 | 0 | 0 |
| 263 | ItchyNose | 3:30.14 | 0 | 0 |
| 264 | Bullet074 | 3:30.33 | 0 | 0 |
| 265 | G9 | 3:30.57 | 0 | 0 |
| 266 | r3 | 3:30.63 | 0 | 0 |
| 267 | krizithy | 3:30.68 | 0 | 0 |
| 268 | Boucoque | 3:30.69 | 0 | 0 |
| 269 | Western Ice Noodle | 3:31.03 | 0 | 0 |
| 270 | TaoSen | 3:31.49 | 0 | 0 |
| 271 | [deleted] | 3:31.59 | 0 | 0 |
| 272 | Tarant_Horton | 3:31.70 | 0 | 0 |
| 273 | Skizz | 3:31.83 | 0 | 0 |
| 274 | Bundao da 2B Explode de Gostoso | 3:31.94 | 0 | 0 |
| 275 | MrNicerDicer | 3:32.03 | 0 | 0 |
| 276 | Grimmy | 3:32.07 | 0 | 0 |
| 277 | Ivoryshovel | 3:32.09 | 0 | 0 |
| 277 | Ozymandias | 3:32.09 | 0 | 0 |
| 279 | Loreckine | 3:32.30 | 0 | 0 |
| 280 | [NR] Miyu012 | 3:32.47 | 0 | 0 |
| 280 | Cmacle | 3:32.47 | 0 | 0 |
| 282 | // Vaffe | 3:32.60 | 0 | 0 |
| 283 | Giant From The East | 3:32.93 | 0 | 0 |
| 284 | MP X10L | 3:33.03 | 0 | 0 |
| 285 | Frozen Dino | 3:33.29 | 0 | 0 |
| 286 | Latapi | 3:33.60 | 0 | 0 |
| 286 | tigerchef123 | 3:33.60 | 0 | 0 |
| 288 | Greenfire DX | 3:33.62 | 0 | 0 |
| 289 | Earthnuker | 3:33.82 | 0 | 0 |
| 290 | Swizy | 3:33.90 | 0 | 0 |
| 291 | Ferreus | 3:33.91 | 0 | 0 |
| 292 | peacook | 3:34.18 | 0 | 0 |
| 293 | Rip | 3:34.23 | 0 | 0 |
| 294 | bbw warrior | 3:34.35 | 0 | 0 |
| 295 | LOLO FAK | 3:34.39 | 0 | 0 |
| 296 | Lib | 3:34.55 | 0 | 0 |
| 297 | Sagara | 3:34.64 | 0 | 0 |
| 297 | Grimn | 3:34.64 | 0 | 0 |
| 299 | Blacky Stranger | 3:34.83 | 0 | 0 |
| 300 | Dragemil | 3:34.91 | 0 | 0 |
| 301 | Foul Tarnished | 3:34.96 | 0 | 0 |
| 302 | Hotride | 3:34.98 | 0 | 0 |
| 303 | CoffeeGremlin | 3:35.48 | 0 | 0 |
| 304 | vorador2 | 3:35.70 | 0 | 0 |
| 305 | Monitor3437 | 3:35.81 | 0 | 0 |
| 306 | Ostpojken | 3:35.83 | 0 | 0 |
| 307 | ErzoopaRTR | 3:35.97 | 0 | 0 |
| 308 | Fromage | 3:35.99 | 0 | 0 |
| 309 | Uncle Ho | 3:36.04 | 0 | 0 |
| 310 | Wyattwashere | 3:36.49 | 0 | 0 |
| 311 | ZeyRax | 3:36.60 | 0 | 0 |
| 312 | Zenixic | 3:36.64 | 0 | 0 |
| 313 | Therio | 3:36.68 | 0 | 0 |
| 314 | LordBohne2 | 3:36.76 | 0 | 0 |
| 315 | Bat Country | 3:36.79 | 0 | 0 |
| 316 | Ara | 3:36.90 | 0 | 0 |
| 317 | LittleHappyWolf | 3:37.03 | 0 | 0 |
| 318 | Sixolu-Veks | 3:37.06 | 0 | 0 |
| 319 | Teclon | 3:37.16 | 0 | 0 |
| 320 | Adventure Buddy | 3:37.18 | 0 | 0 |
| 321 | Uganda Knuckles | 3:37.26 | 0 | 0 |
| 322 | A̶͓̓z̷͓̍ũ̴̩r̷͔͐e̴ | 3:37.30 | 0 | 0 |
| 323 | Zoey Blackwood | 3:37.36 | 0 | 0 |
| 324 | Fixta Fernback | 3:37.37 | 0 | 0 |
| 325 | Jerkel | 3:37.45 | 0 | 0 |
| 326 | Ditzy_Set | 3:37.81 | 0 | 0 |
| 327 | A Moldy Orange | 3:37.87 | 0 | 0 |
| 328 | GaiaGaiyus | 3:37.88 | 0 | 0 |
| 329 | LittleKittyArtemis | 3:38.28 | 0 | 0 |
| 330 | rakix | 3:38.45 | 0 | 0 |
| 331 | robomike27 | 3:38.97 | 0 | 0 |
| 332 | Minecraft-pro | 3:39.25 | 0 | 0 |
| 333 | EnderKill98 | 3:39.47 | 0 | 0 |
| 334 | Eindolon | 3:39.60 | 0 | 0 |
| 335 | Well Shit | 3:39.62 | 0 | 0 |
| 336 | Martins Leggeul | 3:39.86 | 0 | 0 |
| 337 | Zarkilor | 3:40.02 | 0 | 0 |
| 338 | Bismuth | 3:40.13 | 0 | 0 |
| 339 | RedRiotRoss | 3:40.18 | 0 | 0 |
| 340 | NekoNachi | 3:40.39 | 0 | 0 |
| 341 | The Prophet | 3:40.62 | 0 | 0 |
| 342 | . | 3:40.73 | 0 | 0 |
| 342 | Qioury | 3:40.73 | 0 | 0 |
| 344 | Nico | 3:40.77 | 0 | 0 |
| 345 | EzraW118 | 3:40.95 | 0 | 0 |
| 346 | Coopstar2323 | 3:41.02 | 0 | 0 |
| 347 | Dragonsbane1270 | 3:41.22 | 0 | 0 |
| 348 | NIRV007 | 3:41.66 | 0 | 0 |
| 349 | ^1WᴀʀᴘWɪʀᴇ | 3:41.67 | 0 | 0 |
| 350 | Zep | 3:41.83 | 0 | 0 |
| 351 | Kiwi | 3:41.84 | 0 | 0 |
| 352 | GetEmOtterHere | 3:41.98 | 0 | 0 |
| 353 | Aeroslut | 3:42.05 | 0 | 0 |
| 354 | thebigbluesky | 3:42.29 | 0 | 0 |
| 355 | Mr. $7.63 | 3:42.70 | 0 | 0 |
| 356 | bacon | 3:42.75 | 0 | 0 |
| 357 | Mobiteq | 3:42.77 | 0 | 0 |
| 358 | PappaJohn'sOfficial | 3:42.78 | 0 | 0 |
| 359 | Neneko | 3:43.04 | 0 | 0 |
| 360 | Dubblr | 3:43.32 | 0 | 0 |
| 360 | Nephuxs | 3:43.32 | 0 | 0 |
| 362 | delfiler | 3:43.39 | 0 | 0 |
| 363 | Keiyo | 3:43.44 | 0 | 0 |
| 364 | Chase | 3:43.48 | 0 | 0 |
| 365 | Mouldy Donut | 3:43.65 | 0 | 0 |
| 366 | Andy95 | 3:43.92 | 0 | 0 |
| 366 | Alopex | 3:43.92 | 0 | 0 |
| 368 | SwampNoodz! | 3:43.94 | 0 | 0 |
| 369 | Kuma Matata | 3:44.00 | 0 | 0 |
| 370 | Viridian | 3:44.09 | 0 | 0 |
| 371 | sbeve | 3:44.23 | 0 | 0 |
| 372 | PuReCha0s | 3:44.42 | 0 | 0 |
| 373 | Laryk | 3:44.43 | 0 | 0 |
| 374 | rip in pieces | 3:44.50 | 0 | 0 |
| 375 | Keint | 3:44.54 | 0 | 0 |
| 376 | Adrián | 3:44.63 | 0 | 0 |
| 377 | Peter Thiel | 3:45.30 | 0 | 0 |
| 378 | McNaughty | 3:45.45 | 0 | 0 |
| 378 | SX64 | 3:45.45 | 0 | 0 |
| 380 | ^jnz | 3:45.68 | 0 | 0 |
| 381 | AI FRUIT BOSS MAN | 3:46.01 | 0 | 0 |
| 382 | Megacrafter127 | 3:46.33 | 0 | 0 |
| 383 | ***** | 3:46.35 | 0 | 0 |
| 384 | batusaurus rex | 3:46.39 | 0 | 0 |
| 385 | Razanger | 3:46.59 | 0 | 0 |
| 386 | FifteenBread | 3:46.86 | 0 | 0 |
| 387 | EMPTY | 3:47.15 | 0 | 0 |
| 388 | SKRUZO | 3:47.24 | 0 | 0 |
| 389 | Luis | 3:47.35 | 0 | 0 |
| 390 | Tuli | 3:47.40 | 0 | 0 |
| 391 | Gamga | 3:47.62 | 0 | 0 |
| 392 | Arn-Mulet | 3:47.95 | 0 | 0 |
| 393 | jonathan testicle | 3:48.28 | 0 | 0 |
| 394 | Žydras | 3:48.45 | 0 | 0 |
| 395 | Lightshift | 3:48.55 | 0 | 0 |
| 396 | Roggee | 3:48.56 | 0 | 0 |
| 397 | TheEPROM9 LaTeX | 3:48.71 | 0 | 0 |
| 398 | skankhunt42 | 3:48.86 | 0 | 0 |
| 399 | BennLivid | 3:49.19 | 0 | 0 |
| 400 | GTNeon | 3:49.30 | 0 | 0 |
| 401 | NotNotPancake | 3:50.04 | 0 | 0 |
| 402 | CrossRoadStyx | 3:50.33 | 0 | 0 |
| 403 | Cheapo | 3:50.42 | 0 | 0 |
| 404 | East | 3:50.85 | 0 | 0 |
| 405 | Jukey J | 3:50.92 | 0 | 0 |
| 405 | gmatsam32 | 3:50.92 | 0 | 0 |
| 407 | MintyFreshFries | 3:50.95 | 0 | 0 |
| 408 | Zinja | 3:50.98 | 0 | 0 |
| 409 | Sku11ss | 3:51.43 | 0 | 0 |
| 410 | DJairmaster | 3:51.67 | 0 | 0 |
| 411 | Bunker475 | 3:51.81 | 0 | 0 |
| 412 | TheZelen | 3:51.93 | 0 | 0 |
| 413 | Ghostcapin | 3:52.30 | 0 | 0 |
| 414 | Seastone | 3:53.67 | 0 | 0 |
| 415 | Vencer_FRC | 3:54.28 | 0 | 0 |
| 416 | The Good Gaming Dragon | 3:54.30 | 0 | 0 |
| 417 | 『QPUNeptune』 | 3:54.63 | 0 | 0 |
| 418 | DefraggedSSD | 3:55.27 | 0 | 0 |
| 419 | Lethal Recon | 3:55.40 | 0 | 0 |
| 420 | Auston777 | 3:55.50 | 0 | 0 |
| 421 | MightyNifty | 3:55.61 | 0 | 0 |
| 422 | Misuri | 3:56.44 | 0 | 0 |
| 423 | Stranth | 3:56.48 | 0 | 0 |
| 424 | UltimateTone | 3:56.58 | 0 | 0 |
| 425 | LaserRacer | 3:57.19 | 0 | 0 |
| 426 | ~Astral Skies~ | 3:57.56 | 0 | 0 |
| 427 | Eternal Blue | 3:57.69 | 0 | 0 |
| 428 | canman | 3:57.91 | 0 | 0 |
| 429 | Benny | 3:58.39 | 0 | 0 |
| 430 | AyyLmeow | 3:58.62 | 0 | 0 |
| 431 | Natr | 3:58.63 | 0 | 0 |
| 432 | LemonIsland | 3:58.97 | 0 | 0 |
| 432 | Alexkurts | 3:58.97 | 0 | 0 |
| 434 | BigEnnn | 3:59.31 | 0 | 0 |
| 435 | Torja! | 3:59.78 | 0 | 0 |
| 436 | Lliane | 3:59.88 | 0 | 0 |
| 437 | Dave | 3:59.89 | 0 | 0 |
| 438 | ✱ Ale | 4:00.08 | 0 | 0 |
| 439 | ant | 4:00.87 | 0 | 0 |
| 440 | Mathias | 4:01.07 | 0 | 0 |
| 441 | DecentM | 4:01.17 | 0 | 0 |
| 442 | garg | 4:01.65 | 0 | 0 |
| 443 | Xenu | 4:01.72 | 0 | 0 |
| 444 | Salt | 4:02.00 | 0 | 0 |
| 445 | Eshael | 4:02.68 | 0 | 0 |
| 446 | IfritDMC | 4:03.74 | 0 | 0 |
| 447 | B.air | 4:03.92 | 0 | 0 |
| 448 | Ar7icP3nguin | 4:03.97 | 0 | 0 |
| 449 | Skyrandia | 4:04.17 | 0 | 0 |
| 450 | Fire Claw | 4:04.40 | 0 | 0 |
| 451 | Epsilon_Knight | 4:05.31 | 0 | 0 |
| 452 | JDthe3rd | 4:05.32 | 0 | 0 |
| 453 | NIPELZZ | 4:05.80 | 0 | 0 |
| 454 | Methyltheobromine | 4:06.69 | 0 | 0 |
| 455 | wanderingradio | 4:06.86 | 0 | 0 |
| 456 | Loys Nuva | 4:07.52 | 0 | 0 |
| 457 | Anguish | 4:07.53 | 0 | 0 |
| 458 | SpicySpaceSnake | 4:07.58 | 0 | 0 |
| 459 | Bunzzy | 4:07.79 | 0 | 0 |
| 460 | throbbing_fish | 4:07.95 | 0 | 0 |
| 461 | Maki | 4:08.59 | 0 | 0 |
| 462 | Exiled MOU | 4:09.09 | 0 | 0 |
| 463 | Twitch.tv/4RN4UU | 4:09.31 | 0 | 0 |
| 464 | Bdub 𒉭 240km/h PEEK | 4:09.59 | 0 | 0 |
| 465 | Dusty | 4:10.55 | 0 | 0 |
| 466 | onyxglow | 4:10.69 | 0 | 0 |
| 467 | Milse9731Fox | 4:10.83 | 0 | 0 |
| 468 | fettman53 | 4:10.85 | 0 | 0 |
| 469 | flaniert gerne | 4:10.93 | 0 | 0 |
| 470 | Alesha170 | 4:11.00 | 0 | 0 |
| 471 | Skimmy Fudge | 4:11.89 | 0 | 0 |
| 472 | Breezy™ | 4:12.70 | 0 | 0 |
| 473 | Despo_357 | 4:13.00 | 0 | 0 |
| 474 | MAT D.R.⎛⎝≥⏝⏝≤⎠⎞ | 4:13.07 | 0 | 0 |
| 475 | C4 connoisseur | 4:13.83 | 0 | 0 |
| 476 | RL | 4:13.90 | 0 | 0 |
| 477 | Soundwave815 | 4:14.26 | 0 | 0 |
| 478 | OilsTheBody | 4:14.29 | 0 | 0 |
| 478 | isaacpotato | 4:14.29 | 0 | 0 |
| 480 | Fushiggy | 4:14.41 | 0 | 0 |
| 481 | marf | 4:14.89 | 0 | 0 |
| 482 | Irri | 4:16.12 | 0 | 0 |
| 483 | dryco | 4:16.22 | 0 | 0 |
| 484 | Mr_pooker | 4:16.36 | 0 | 0 |
| 485 | Afromation | 4:16.77 | 0 | 0 |
| 486 | swad127 | 4:17.10 | 0 | 0 |
| 487 | grafica | 4:18.02 | 0 | 0 |
| 488 | AlgØrithm | 4:18.90 | 0 | 0 |
| 489 | K'artei | 4:20.06 | 0 | 0 |
| 490 | simplesystem | 4:20.15 | 0 | 0 |
| 491 | Luna | 4:22.08 | 0 | 0 |
| 492 | Amni | 4:23.69 | 0 | 0 |
| 493 | P¡ρ¡nσข-`ღ´ | 4:24.39 | 0 | 0 |
| 494 | EkkoMan. | 4:24.55 | 0 | 0 |
| 495 | Alikey | 4:24.68 | 0 | 0 |
| 496 | Felixcalm | 4:24.99 | 0 | 0 |
| 497 | 문경왕개미 | 4:25.04 | 0 | 0 |
| 498 | SG-58 | 4:25.62 | 0 | 0 |
| 499 | Distance306 | 4:25.65 | 0 | 0 |
| 500 | SilverRexy❤ | 4:25.85 | 0 | 0 |
| 501 | SDGT Ent | 4:25.87 | 0 | 0 |
| 502 | Seere | 4:25.93 | 0 | 0 |
| 503 | ONLY STRAIGHT IS NORMAL, FREAKS! | 4:26.93 | 0 | 0 |
| 504 | BolSalvaje | 4:27.47 | 0 | 0 |
| 505 | kivito | 4:28.36 | 0 | 0 |
| 506 | Duke Jukem | 4:28.59 | 0 | 0 |
| 507 | PanFro | 4:28.70 | 0 | 0 |
| 508 | Voltaic | 4:29.52 | 0 | 0 |
| 509 | MPR03a | 4:30.59 | 0 | 0 |
| 510 | 01011011010 | 4:31.49 | 0 | 0 |
| 511 | Jaeden7060 | 4:31.99 | 0 | 0 |
| 512 | fischpferd | 4:32.90 | 0 | 0 |
| 513 | Krazy8s | 4:33.43 | 0 | 0 |
| 514 | WizardOWozz | 4:35.83 | 0 | 0 |
| 515 | DROCHEPOLK | 4:36.07 | 0 | 0 |
| 516 | coss80 | 4:37.44 | 0 | 0 |
| 517 | DarkVoltageBCA | 4:37.80 | 0 | 0 |
| 518 | SneakySnek | 4:38.10 | 0 | 0 |
| 519 | silversin33 | 4:38.27 | 0 | 0 |
| 520 | sizifov | 4:38.66 | 0 | 0 |
| 521 | ruteqube | 4:38.77 | 0 | 0 |
| 522 | pinecone-kun | 4:40.31 | 0 | 0 |
| 523 | Dissenter | 4:40.56 | 0 | 0 |
| 524 | TheSeaOfAsh | 4:40.83 | 0 | 0 |
| 525 | Kincaid | 4:40.92 | 0 | 0 |
| 526 | MoondustIsPoison | 4:41.57 | 0 | 0 |
| 527 | BK Trombley | 4:41.64 | 0 | 0 |
| 528 | [deleted] | 4:43.71 | 0 | 0 |
| 529 | Caracarn | 4:44.76 | 0 | 0 |
| 530 | Uranos | 4:46.30 | 0 | 0 |
| 531 | Siwy | 4:46.48 | 0 | 0 |
| 532 | Astrodynamics | 4:46.54 | 0 | 0 |
| 533 | Muse | 4:46.64 | 0 | 0 |
| 534 | PinkSlippers_ | 4:47.28 | 0 | 0 |
| 535 | Marwan Green Critter | 4:48.21 | 0 | 0 |
| 536 | joltz | 4:49.36 | 0 | 0 |
| 537 | BrandonK-TN | 4:49.51 | 0 | 0 |
| 538 | GORAi | 4:49.98 | 0 | 0 |
| 539 | g●Sleep | 4:50.36 | 0 | 0 |
| 540 | CMDRVITELL | 4:51.58 | 0 | 0 |
| 541 | Pixelbo | 4:51.87 | 0 | 0 |
| 542 | Шоколадка:) | 4:51.98 | 0 | 0 |
| 543 | Cursed Fire | 4:55.45 | 0 | 0 |
| 544 | Wolf Black | 4:56.19 | 0 | 0 |
| 545 | Bob Katter | 4:56.64 | 0 | 0 |
| 546 | denokan | 4:57.18 | 0 | 0 |
| 547 | TheAustraliumGibus | 5:00.38 | 0 | 0 |
| 548 | the_monotonist | 5:00.60 | 0 | 0 |
| 549 | RinsDoll | 5:01.33 | 0 | 0 |
| 550 | Sibsen | 5:01.93 | 0 | 0 |
| 551 | Eyes | 5:02.44 | 0 | 0 |
| 552 | Khorix™ | 5:02.87 | 0 | 0 |
| 553 | LiFRiz | 5:06.27 | 0 | 0 |
| 554 | Maryś | 5:06.32 | 0 | 0 |
| 555 | Tredadawn | 5:11.86 | 0 | 0 |
| 556 | iscerming | 5:16.66 | 0 | 0 |
| 557 | Axle Dawn Dusk | 5:18.26 | 0 | 0 |
| 558 | enejūto | 5:18.45 | 0 | 0 |
| 559 | Masianman | 5:20.03 | 0 | 0 |
| 560 | Teapot Possum | 5:30.11 | 0 | 0 |
| 561 | KingSpammerNerd | 5:30.65 | 0 | 0 |
| 562 | Yipp | 5:35.46 | 0 | 0 |
| 563 | YoloMoth | 5:39.79 | 0 | 0 |
| 564 | Silvertail | 5:48.36 | 0 | 0 |
| 565 | GOOSE SATAN! | 5:50.57 | 0 | 0 |
| 566 | Bobeye | 5:50.63 | 0 | 0 |
| 567 | beanii | 5:55.28 | 0 | 0 |
| 568 | Pagay | 6:00.38 | 0 | 0 |
| 569 | rezzonating | 6:01.65 | 0 | 0 |
| 570 | DARKDragonBR17 | 6:03.87 | 0 | 0 |
| 571 | Enso | 6:04.84 | 0 | 0 |
| 572 | David Anthony Henriott | 6:12.88 | 0 | 0 |
| 573 | FaztlapTTV | 6:13.31 | 0 | 0 |
| 574 | Ashbiel | 6:13.66 | 0 | 0 |
| 575 | Luminousturtle | 6:17.21 | 0 | 0 |
| 576 | Cookie Dealer | 6:19.94 | 0 | 0 |
| 577 | NON | 6:29.18 | 0 | 0 |
| 578 | Penny_Tration | 6:31.22 | 0 | 0 |
| 579 | Hedgy | 6:31.88 | 0 | 0 |
| 580 | BBQ-Bacon-Pizza | 6:36.65 | 0 | 0 |
| 581 | [email protected] | 6:48.67 | 0 | 0 |
| 582 | Diabetis4life | 6:54.54 | 0 | 0 |
| 583 | Hooligan | 6:56.50 | 0 | 0 |
| 584 | Xeno146 | 7:01.57 | 0 | 0 |
| 585 | Blourk | 7:02.19 | 0 | 0 |
| 586 | Endril | 7:13.04 | 0 | 0 |
| 587 | Razand | 37:06.31 | 0 | 0 |
HoldGrip